createdAt,value
2022-08-14T00:00:48.451Z,4.27
2022-08-14T00:03:29.514Z,4.40
2022-08-14T00:06:02.930Z,4.83
2022-08-14T00:08:53.983Z,5.30
2022-08-14T00:11:24.987Z,4.80
2022-08-14T00:13:56.054Z,4.13
2022-08-14T00:16:41.198Z,4.23
2022-08-14T00:19:21.180Z,4.40
2022-08-14T00:21:52.739Z,4.00
2022-08-14T00:24:29.087Z,4.27
2022-08-14T00:27:02.831Z,4.23
2022-08-14T00:29:40.582Z,4.10
2022-08-14T00:32:52.938Z,4.53
2022-08-14T00:35:07.908Z,4.03
2022-08-14T00:37:46.430Z,4.37
2022-08-14T00:40:35.366Z,4.20
2022-08-14T00:43:07.924Z,4.80
2022-08-14T00:45:39.475Z,4.87
2022-08-14T00:48:12.574Z,4.73
2022-08-14T00:51:06.551Z,4.07
2022-08-14T00:53:40.006Z,4.43
2022-08-14T00:56:15.636Z,4.33
2022-08-14T00:58:48.607Z,4.80
2022-08-14T01:01:19.715Z,4.30
2022-08-14T01:03:53.474Z,4.50
2022-08-14T01:06:30.307Z,4.43
2022-08-14T01:09:05.426Z,4.47
2022-08-14T01:11:39.165Z,4.93
2022-08-14T01:14:28.289Z,4.77
2022-08-14T01:16:59.978Z,4.70
2022-08-14T01:19:49.529Z,4.73
2022-08-14T01:22:20.816Z,4.90
2022-08-14T01:24:57.955Z,4.40
2022-08-14T01:27:29.856Z,5.20
2022-08-14T01:30:03.936Z,4.40
2022-08-14T01:32:42.562Z,5.13
2022-08-14T01:35:20.115Z,4.70
2022-08-14T01:38:05.783Z,4.80
2022-08-14T01:40:41.967Z,5.10
2022-08-14T01:43:18.590Z,5.33
2022-08-14T01:46:06.418Z,5.23
2022-08-14T01:48:40.437Z,5.37
2022-08-14T01:51:19.311Z,4.93
2022-08-14T01:53:56.337Z,5.70
2022-08-14T01:56:39.865Z,6.00
2022-08-14T01:59:37.853Z,5.83
2022-08-14T02:02:19.948Z,5.10
2022-08-14T02:04:55.337Z,5.03
2022-08-14T02:07:44.669Z,6.03
2022-08-14T02:10:26.329Z,5.30
2022-08-14T02:12:59.476Z,6.30
2022-08-14T02:15:30.698Z,5.83
2022-08-14T02:18:04.423Z,5.83
2022-08-14T02:20:36.061Z,5.70
2022-08-14T02:23:08.296Z,5.77
2022-08-14T02:25:39.631Z,5.13
2022-08-14T02:28:24.310Z,5.70
2022-08-14T02:31:01.784Z,5.50
2022-08-14T02:33:33.748Z,5.80
2022-08-14T02:37:06.154Z,4.83
2022-08-14T02:39:07.718Z,5.20
2022-08-14T02:41:45.050Z,5.73
2022-08-14T02:44:29.489Z,5.50
2022-08-14T02:47:01.837Z,5.93
2022-08-14T02:49:33.965Z,4.60
2022-08-14T02:52:16.053Z,5.00
2022-08-14T02:54:58.289Z,5.70
2022-08-14T02:57:39.251Z,4.80
2022-08-14T03:00:18.750Z,4.93
2022-08-14T03:02:58.854Z,5.27
2022-08-14T03:05:36.193Z,5.17
2022-08-14T03:08:16.124Z,4.73
2022-08-14T03:10:50.111Z,5.50
2022-08-14T03:13:21.997Z,5.20
2022-08-14T03:15:57.849Z,5.90
2022-08-14T03:18:32.093Z,5.50
2022-08-14T03:21:07.771Z,5.27
2022-08-14T03:23:43.904Z,5.60
2022-08-14T03:26:29.910Z,5.37
2022-08-14T03:29:02.396Z,5.20
2022-08-14T03:31:33.442Z,6.20
2022-08-14T03:34:04.764Z,6.17
2022-08-14T03:37:29.703Z,5.50
2022-08-14T03:39:34.702Z,5.27
2022-08-14T03:42:06.773Z,5.63
2022-08-14T03:45:19.530Z,5.93
2022-08-14T03:47:46.641Z,5.90
2022-08-14T03:50:32.561Z,5.40
2022-08-14T03:53:04.051Z,5.23
2022-08-14T03:55:35.035Z,5.47
2022-08-14T03:58:10.219Z,5.67
2022-08-14T04:00:46.294Z,6.03
2022-08-14T04:03:24.214Z,6.70
2022-08-14T04:05:55.566Z,5.50
2022-08-14T04:08:31.118Z,5.60
2022-08-14T04:11:08.034Z,5.50
2022-08-14T04:13:43.416Z,6.13
2022-08-14T04:16:21.182Z,5.47
2022-08-14T04:18:57.492Z,5.53
2022-08-14T04:21:29.554Z,5.20
2022-08-14T04:24:12.783Z,5.73
2022-08-14T04:26:46.971Z,5.23
2022-08-14T04:29:18.588Z,5.43
2022-08-14T04:33:00.756Z,5.47
2022-08-14T04:34:42.285Z,5.27
2022-08-14T04:37:43.160Z,5.50
2022-08-14T04:40:35.418Z,5.27
2022-08-14T04:43:38.839Z,5.40
2022-08-14T04:46:56.518Z,5.33
2022-08-14T04:49:09.062Z,5.00
2022-08-14T04:51:55.462Z,5.47
2022-08-14T04:54:28.359Z,5.57
2022-08-14T04:56:59.277Z,5.20
2022-08-14T04:59:30.183Z,5.17
2022-08-14T05:02:01.079Z,5.20
2022-08-14T05:04:33.506Z,5.73
2022-08-14T05:07:10.714Z,4.70
2022-08-14T05:09:43.934Z,5.97
2022-08-14T05:13:11.003Z,5.50
2022-08-14T05:15:10.395Z,6.10
2022-08-14T05:17:54.055Z,4.93
2022-08-14T05:21:57.919Z,5.00
2022-08-14T05:23:29.549Z,6.00
2022-08-14T05:26:02.864Z,6.03
2022-08-14T05:28:35.555Z,5.10
2022-08-14T05:31:08.083Z,6.10
2022-08-14T05:33:40.913Z,5.80
2022-08-14T05:36:16.647Z,5.83
2022-08-14T05:38:48.172Z,4.93
2022-08-14T05:41:19.657Z,5.60
2022-08-14T05:43:53.036Z,4.87
2022-08-14T05:46:24.346Z,5.30
2022-08-14T05:48:57.999Z,4.70
2022-08-14T05:51:28.891Z,5.10
2022-08-14T05:54:13.864Z,5.27
2022-08-14T05:56:52.574Z,5.50
2022-08-14T05:59:36.610Z,5.40
2022-08-14T06:02:10.733Z,5.53
2022-08-14T06:04:48.266Z,5.03
2022-08-14T06:07:20.312Z,5.00
2022-08-14T06:09:52.429Z,5.53
2022-08-14T06:12:31.424Z,4.90
2022-08-14T06:15:14.412Z,4.60
2022-08-14T06:17:58.914Z,5.17
2022-08-14T06:20:31.457Z,5.33
2022-08-14T06:23:06.046Z,5.47
2022-08-14T06:25:37.286Z,5.30
2022-08-14T06:28:27.218Z,4.93
2022-08-14T06:30:58.919Z,4.77
2022-08-14T06:35:04.666Z,4.90
2022-08-14T06:36:20.769Z,4.77
2022-08-14T06:38:53.216Z,5.60
2022-08-14T06:41:44.037Z,5.30
2022-08-14T06:44:16.558Z,5.10
2022-08-14T06:46:49.393Z,5.00
2022-08-14T06:49:20.483Z,5.00
2022-08-14T06:51:51.358Z,4.90
2022-08-14T06:54:31.514Z,5.20
2022-08-14T06:57:02.844Z,4.80
2022-08-14T06:59:34.496Z,4.07
2022-08-14T07:02:24.493Z,4.10
2022-08-14T07:05:22.884Z,4.90
2022-08-14T07:07:54.408Z,4.50
2022-08-14T07:10:25.571Z,4.43
2022-08-14T07:13:03.750Z,3.67
2022-08-14T07:15:42.140Z,4.93
2022-08-14T07:18:14.077Z,4.67
2022-08-14T07:20:44.957Z,4.20
2022-08-14T07:23:21.059Z,4.50
2022-08-14T07:25:58.211Z,5.00
2022-08-14T07:28:43.484Z,4.67
2022-08-14T07:31:16.419Z,4.50
2022-08-14T07:33:50.642Z,4.93
2022-08-14T07:36:26.542Z,5.17
2022-08-14T07:39:02.962Z,4.40
2022-08-14T07:41:44.686Z,4.13
2022-08-14T07:44:28.769Z,4.93
2022-08-14T07:47:05.268Z,4.67
2022-08-14T07:49:36.375Z,5.00
2022-08-14T07:52:08.134Z,4.70
2022-08-14T07:54:41.434Z,4.50
2022-08-14T07:57:22.414Z,4.70
2022-08-14T07:59:56.040Z,3.93
2022-08-14T08:02:32.620Z,4.23
2022-08-14T08:05:04.155Z,4.70
2022-08-14T08:07:39.150Z,3.90
2022-08-14T08:10:57.318Z,4.37
2022-08-14T08:13:24.640Z,3.77
2022-08-14T08:16:00.357Z,4.30
2022-08-14T08:18:32.602Z,4.53
2022-08-14T08:21:08.457Z,4.13
2022-08-14T08:23:51.019Z,4.00
2022-08-14T08:26:30.890Z,4.30
2022-08-14T08:29:01.817Z,4.47
2022-08-14T08:31:35.200Z,3.97
2022-08-14T08:34:07.359Z,4.53
2022-08-14T08:36:46.679Z,3.90
2022-08-14T08:39:22.353Z,3.97
2022-08-14T08:41:54.101Z,3.50
2022-08-14T08:44:31.815Z,3.70
2022-08-14T08:47:08.141Z,3.20
2022-08-14T08:49:58.925Z,3.80
2022-08-14T08:52:42.485Z,3.37
2022-08-14T08:55:29.653Z,4.10
2022-08-14T08:58:12.731Z,3.90
2022-08-14T09:01:00.109Z,4.10
2022-08-14T09:03:32.266Z,3.67
2022-08-14T09:06:32.934Z,4.40
2022-08-14T09:08:57.086Z,3.70
2022-08-14T09:11:28.019Z,3.90
2022-08-14T09:14:00.505Z,3.93
2022-08-14T09:16:31.486Z,3.73
2022-08-14T09:19:04.327Z,4.20
2022-08-14T09:21:35.354Z,3.60
2022-08-14T09:24:29.501Z,3.70
2022-08-14T09:26:59.795Z,3.50
2022-08-14T09:29:31.813Z,4.03
2022-08-14T09:32:57.723Z,3.67
2022-08-14T09:35:19.475Z,4.33
2022-08-14T09:38:15.526Z,3.50
2022-08-14T09:41:24.019Z,3.80
2022-08-14T09:44:45.708Z,3.83
2022-08-14T09:47:17.396Z,3.53
2022-08-14T09:49:53.191Z,3.57
2022-08-14T09:52:33.870Z,3.17
2022-08-14T09:55:18.625Z,3.53
2022-08-14T09:57:53.364Z,4.00
2022-08-14T10:00:49.065Z,3.63
2022-08-14T10:03:53.648Z,4.20
2022-08-14T10:06:28.183Z,3.70
2022-08-14T10:09:02.472Z,3.43
2022-08-14T10:11:37.956Z,3.33
2022-08-14T10:14:35.310Z,3.50
2022-08-14T10:17:08.620Z,3.50
2022-08-14T10:19:48.775Z,3.70
2022-08-14T10:23:12.372Z,3.30
2022-08-14T10:25:22.660Z,4.27
2022-08-14T10:27:59.738Z,3.50
2022-08-14T10:30:38.397Z,4.60
2022-08-14T10:33:09.664Z,4.07
2022-08-14T10:35:48.076Z,4.30
2022-08-14T10:38:34.720Z,4.20
2022-08-14T10:41:17.383Z,4.63
2022-08-14T10:44:21.552Z,4.10
2022-08-14T10:47:40.820Z,4.20
2022-08-14T10:50:00.932Z,3.90
2022-08-14T10:52:35.292Z,3.60
2022-08-14T10:55:16.334Z,3.70
2022-08-14T10:57:59.818Z,3.73
2022-08-14T11:00:35.405Z,4.20
2022-08-14T11:03:11.028Z,4.53
2022-08-14T11:05:55.526Z,3.67
2022-08-14T11:08:32.336Z,4.10
2022-08-14T11:11:05.949Z,3.73
2022-08-14T11:13:43.830Z,4.30
2022-08-14T11:16:16.077Z,3.70
2022-08-14T11:18:51.686Z,3.60
2022-08-14T11:21:30.254Z,2.70
2022-08-14T11:24:54.014Z,3.30
2022-08-14T11:27:02.119Z,3.30
2022-08-14T11:29:36.955Z,2.55
2022-08-14T11:32:11.561Z,3.10
2022-08-14T11:34:43.170Z,3.03
2022-08-14T11:37:20.750Z,3.13
2022-08-14T11:39:58.876Z,3.30
2022-08-14T11:42:57.377Z,2.83
2022-08-14T11:45:34.352Z,3.20
2022-08-14T11:49:03.914Z,3.13
2022-08-14T11:51:26.046Z,3.50
2022-08-14T11:54:03.855Z,3.30
2022-08-14T11:56:40.195Z,3.67
2022-08-14T11:59:18.155Z,3.15
2022-08-14T12:01:49.400Z,3.45
2022-08-14T12:04:31.778Z,2.95
2022-08-14T12:07:07.643Z,3.72
2022-08-14T12:09:43.104Z,3.00
2022-08-14T12:12:35.568Z,3.00
2022-08-14T12:15:08.766Z,3.53
2022-08-14T12:17:53.226Z,3.10
2022-08-14T12:20:37.389Z,3.60
2022-08-14T12:23:25.706Z,2.90
2022-08-14T12:26:32.140Z,2.67
2022-08-14T12:29:09.505Z,2.95
2022-08-14T12:31:47.385Z,2.83
2022-08-14T12:34:24.362Z,2.78
2022-08-14T12:37:05.759Z,2.67
2022-08-14T12:39:39.777Z,2.70
2022-08-14T12:42:11.598Z,3.05
2022-08-14T12:44:59.899Z,2.92
2022-08-14T12:47:35.215Z,2.80
2022-08-14T12:50:07.287Z,2.80
2022-08-14T12:52:56.047Z,2.70
2022-08-14T12:56:17.560Z,2.70
2022-08-14T12:58:51.842Z,2.53
2022-08-14T13:01:27.334Z,2.20
2022-08-14T13:04:15.285Z,2.50
2022-08-14T13:06:51.334Z,2.47
2022-08-14T13:09:36.696Z,2.00
2022-08-14T13:12:34.801Z,1.90
2022-08-14T13:15:08.748Z,2.33
2022-08-14T13:17:51.130Z,2.72
2022-08-14T13:20:26.727Z,2.42
2022-08-14T13:23:02.498Z,2.60
2022-08-14T13:25:37.711Z,2.40
2022-08-14T13:28:10.973Z,2.70
2022-08-14T13:30:45.826Z,2.40
2022-08-14T13:33:21.180Z,2.60
2022-08-14T13:35:52.889Z,2.57
2022-08-14T13:38:25.244Z,2.53
2022-08-14T13:40:58.870Z,2.60
2022-08-14T13:43:36.607Z,2.70
2022-08-14T13:46:08.220Z,2.55
2022-08-14T13:48:44.000Z,2.40
2022-08-14T13:51:17.677Z,2.55
2022-08-14T13:54:08.416Z,2.60
2022-08-14T13:56:42.091Z,2.20
2022-08-14T13:59:20.174Z,3.03
2022-08-14T14:01:52.137Z,2.53
2022-08-14T14:04:25.440Z,2.47
2022-08-14T14:07:04.449Z,2.60
2022-08-14T14:09:50.857Z,2.38
2022-08-14T14:12:37.317Z,1.98
2022-08-14T14:15:13.822Z,2.40
2022-08-14T14:17:47.763Z,2.00
2022-08-14T14:20:34.306Z,2.10
2022-08-14T14:23:11.781Z,2.00
2022-08-14T14:25:51.051Z,2.10
2022-08-14T14:28:31.945Z,1.98
2022-08-14T14:31:06.947Z,1.90
2022-08-14T14:33:49.056Z,1.83
2022-08-14T14:36:30.497Z,2.20
2022-08-14T14:39:05.954Z,2.05
2022-08-14T14:41:44.097Z,1.80
2022-08-14T14:44:16.503Z,2.60
2022-08-14T14:46:50.509Z,1.70
2022-08-14T14:49:42.166Z,2.20
2022-08-14T14:52:23.233Z,1.88
2022-08-14T14:54:58.960Z,1.90
2022-08-14T14:57:35.235Z,1.50
2022-08-14T15:00:18.463Z,1.90
2022-08-14T15:02:57.829Z,2.00
2022-08-14T15:05:31.025Z,1.70
2022-08-14T15:08:06.762Z,1.60
2022-08-14T15:10:40.081Z,1.95
2022-08-14T15:13:11.931Z,1.70
2022-08-14T15:15:46.945Z,2.20
2022-08-14T15:18:36.990Z,2.13
2022-08-14T15:21:09.503Z,2.30
2022-08-14T15:23:44.177Z,2.22
2022-08-14T15:26:23.798Z,2.17
2022-08-14T15:29:06.569Z,2.30
2022-08-14T15:31:38.723Z,2.33
2022-08-14T15:34:45.605Z,2.40
2022-08-14T15:37:13.133Z,2.40
2022-08-14T15:39:57.393Z,2.50
2022-08-14T15:42:30.405Z,2.63
2022-08-14T15:45:02.349Z,2.30
2022-08-14T15:47:35.098Z,2.80
2022-08-14T15:50:13.261Z,2.30
2022-08-14T15:52:45.027Z,2.53
2022-08-14T15:55:19.015Z,2.50
2022-08-14T15:58:03.933Z,2.30
2022-08-14T16:00:55.986Z,2.00
2022-08-14T16:03:36.526Z,2.10
2022-08-14T16:06:15.639Z,2.13
2022-08-14T16:08:57.698Z,2.37
2022-08-14T16:11:33.167Z,2.00
2022-08-14T16:14:06.622Z,2.47
2022-08-14T16:16:50.866Z,2.37
2022-08-14T16:19:31.871Z,2.60
2022-08-14T16:22:59.439Z,2.50
2022-08-14T16:25:03.096Z,2.47
2022-08-14T16:27:41.570Z,2.90
2022-08-14T16:30:25.099Z,2.70
2022-08-14T16:33:02.193Z,2.43
2022-08-14T16:35:42.672Z,2.20
2022-08-14T16:38:46.518Z,2.10
2022-08-14T16:41:29.972Z,2.38
2022-08-14T16:44:13.799Z,2.90
2022-08-14T16:46:57.212Z,2.47
2022-08-14T16:50:03.191Z,2.50
2022-08-14T16:52:44.196Z,2.77
2022-08-14T16:55:17.710Z,2.47
2022-08-14T16:57:54.864Z,2.50
2022-08-14T17:00:43.467Z,3.10
2022-08-14T17:03:16.598Z,2.67
2022-08-14T17:05:49.374Z,2.63
2022-08-14T17:08:41.922Z,2.43
2022-08-14T17:11:14.934Z,3.33
2022-08-14T17:13:58.371Z,2.37
2022-08-14T17:16:37.768Z,2.30
2022-08-14T17:19:15.467Z,2.23
2022-08-14T17:21:51.994Z,2.70
2022-08-14T17:25:03.177Z,2.20
2022-08-14T17:27:22.905Z,1.90
2022-08-14T17:29:57.309Z,2.53
2022-08-14T17:32:55.588Z,2.40
2022-08-14T17:35:57.737Z,2.73
2022-08-14T17:38:38.354Z,2.80
2022-08-14T17:41:23.572Z,2.83
2022-08-14T17:44:12.837Z,3.40
2022-08-14T17:47:04.897Z,3.00
2022-08-14T17:49:46.521Z,3.20
2022-08-14T17:52:34.233Z,3.23
2022-08-14T17:56:01.349Z,3.10
2022-08-14T17:58:21.606Z,3.20
2022-08-14T18:00:57.781Z,3.10
2022-08-14T18:03:50.077Z,3.47
2022-08-14T18:06:37.997Z,3.70
2022-08-14T18:09:24.719Z,3.40
2022-08-14T18:12:03.788Z,3.50
2022-08-14T18:14:48.459Z,3.27
2022-08-14T18:17:24.144Z,3.70
2022-08-14T18:19:58.675Z,4.00
2022-08-14T18:22:39.585Z,3.43
2022-08-14T18:25:22.585Z,3.80
2022-08-14T18:27:57.259Z,3.30
2022-08-14T18:30:32.027Z,3.10
2022-08-14T18:33:22.149Z,3.17
2022-08-14T18:35:59.989Z,3.53
2022-08-14T18:39:00.064Z,3.20
2022-08-14T18:41:36.802Z,3.83
2022-08-14T18:44:10.262Z,3.43
2022-08-14T18:47:15.200Z,3.33
2022-08-14T18:50:26.154Z,3.37
2022-08-14T18:53:07.181Z,3.00
2022-08-14T18:55:53.002Z,3.10
2022-08-14T18:58:33.783Z,3.07
2022-08-14T19:01:06.349Z,3.00
2022-08-14T19:03:37.457Z,3.33
2022-08-14T19:06:10.144Z,3.70
2022-08-14T19:08:47.778Z,3.77
2022-08-14T19:11:40.441Z,2.90
2022-08-14T19:14:16.304Z,3.30
2022-08-14T19:16:48.196Z,3.70
2022-08-14T19:19:24.468Z,3.60
2022-08-14T19:21:57.469Z,4.57
2022-08-14T19:24:44.131Z,3.47
2022-08-14T19:27:24.127Z,3.37
2022-08-14T19:30:19.831Z,3.37
2022-08-14T19:32:56.037Z,3.80
2022-08-14T19:35:49.169Z,3.40
2022-08-14T19:38:57.777Z,3.10
2022-08-14T19:41:34.552Z,2.93
2022-08-14T19:44:10.880Z,3.47
2022-08-14T19:47:00.035Z,2.90
2022-08-14T19:50:08.782Z,3.07
2022-08-14T19:52:39.588Z,3.70
2022-08-14T19:55:19.578Z,3.57
2022-08-14T19:57:58.603Z,4.00
2022-08-14T20:00:30.769Z,3.50
2022-08-14T20:03:14.213Z,3.80
2022-08-14T20:06:05.380Z,4.20
2022-08-14T20:09:05.806Z,3.30
2022-08-14T20:12:02.255Z,3.50
2022-08-14T20:14:29.812Z,3.93
2022-08-14T20:17:06.232Z,3.63
2022-08-14T20:19:41.771Z,4.40
2022-08-14T20:22:36.565Z,3.97
2022-08-14T20:25:23.191Z,3.90
2022-08-14T20:27:59.312Z,4.23
2022-08-14T20:30:34.890Z,3.87
2022-08-14T20:33:10.658Z,4.00
2022-08-14T20:35:49.104Z,3.70
2022-08-14T20:38:33.200Z,4.10
2022-08-14T20:41:10.746Z,4.40
2022-08-14T20:44:06.637Z,4.30
2022-08-14T20:46:39.527Z,4.13
2022-08-14T20:49:18.567Z,4.37
2022-08-14T20:51:58.987Z,4.57
2022-08-14T20:54:34.530Z,4.20
2022-08-14T20:57:09.355Z,4.00
2022-08-14T20:59:48.894Z,4.77
2022-08-14T21:02:29.502Z,8.47
2022-08-14T21:05:16.781Z,5.33
2022-08-14T21:07:51.055Z,3.90
2022-08-14T21:10:36.030Z,4.50
2022-08-14T21:14:09.074Z,10.37
2022-08-14T21:16:33.725Z,6.23
2022-08-14T21:19:02.251Z,4.30
2022-08-14T21:21:41.799Z,5.30
2022-08-14T21:24:38.818Z,4.43
2022-08-14T21:27:22.031Z,3.80
2022-08-14T21:29:56.107Z,4.67
2022-08-14T21:32:47.279Z,3.83
2022-08-14T21:35:22.823Z,5.23
2022-08-14T21:37:55.552Z,4.53
2022-08-14T21:40:40.888Z,4.43
2022-08-14T21:43:19.306Z,4.90
2022-08-14T21:45:56.198Z,3.67
2022-08-14T21:48:32.702Z,3.73
2022-08-14T21:51:55.077Z,4.30
2022-08-14T21:54:04.131Z,4.00
2022-08-14T21:56:41.851Z,3.93
2022-08-14T21:59:32.271Z,3.77
2022-08-14T22:02:06.508Z,4.73
2022-08-14T22:04:41.409Z,4.53
2022-08-14T22:07:16.766Z,4.40
2022-08-14T22:09:55.142Z,4.00
2022-08-14T22:12:45.371Z,4.50
2022-08-14T22:15:21.976Z,4.90
2022-08-14T22:17:54.501Z,4.40
2022-08-14T22:20:31.457Z,4.53
2022-08-14T22:23:08.585Z,4.20
2022-08-14T22:25:43.260Z,4.40
2022-08-14T22:28:27.301Z,4.30
2022-08-14T22:31:10.518Z,4.60
2022-08-14T22:33:42.982Z,5.10
2022-08-14T22:36:42.072Z,4.57
2022-08-14T22:39:40.175Z,4.80
2022-08-14T22:42:22.715Z,5.30
2022-08-14T22:44:56.414Z,4.20
2022-08-14T22:47:40.528Z,4.67
2022-08-14T22:50:32.596Z,5.57
2022-08-14T22:53:05.927Z,4.90
2022-08-14T22:55:37.984Z,4.63
2022-08-14T22:58:09.804Z,4.57
2022-08-14T23:00:41.936Z,4.43
2022-08-14T23:03:17.370Z,4.00
2022-08-14T23:05:52.727Z,4.20
2022-08-14T23:08:58.840Z,5.30
2022-08-14T23:11:16.849Z,4.47
2022-08-14T23:13:48.803Z,4.17
2022-08-14T23:16:24.094Z,4.97
2022-08-14T23:18:55.606Z,3.97
2022-08-14T23:21:28.843Z,4.77
2022-08-14T23:24:00.213Z,4.63
2022-08-14T23:26:48.411Z,4.70
2022-08-14T23:29:21.568Z,4.80
2022-08-14T23:31:53.503Z,4.50
2022-08-14T23:34:26.463Z,4.47
2022-08-14T23:37:03.844Z,3.70
2022-08-14T23:39:35.668Z,4.00
2022-08-14T23:42:11.567Z,4.20
2022-08-14T23:44:45.905Z,4.07
2022-08-14T23:47:26.842Z,4.03
2022-08-14T23:50:03.518Z,4.43
2022-08-14T23:52:57.426Z,4.20
2022-08-14T23:55:34.238Z,4.00
2022-08-14T23:58:05.199Z,4.10
